In Rescue
 
Open Full Screen Window  High Contrast Mode
Wind Gusting 19 knots
15
May 20, 2019 2:25 PM EDT
Weather Information
Wind Direction
  340 °
Wind Speed
  15 kt (17 mph)
Wind Gust
  19 kt (22 mph)
Altimeter
30.00 in
Visibility
10 SM
Temperature
12° C
54° F
Dewpoint
01° C
34° F
Humidity
47%
1hr Rain Fall
00.00 in.
24hr Rain Fall
00.00 in.
Sky Condition
Broken @ 4,500 ft
Broken @ 3,800 ft
VFR

METAR KISQ 201825Z AUTO 34015G19KT 10SM BKN038 BKN045 12/01 A3000 RMK AO2 T01160009

FAA Disclaimer: The data displayed is for advisory purposes only and is not to be used for flight planning or operations.